createdAt,value
2018-05-17T00:00:51.392Z,77.40
2018-05-17T00:03:17.836Z,78.07
2018-05-17T00:05:44.278Z,78.33
2018-05-17T00:08:10.674Z,77.94
2018-05-17T00:10:37.842Z,78.82
2018-05-17T00:13:04.256Z,78.99
2018-05-17T00:15:31.514Z,78.88
2018-05-17T00:17:58.142Z,78.15
2018-05-17T00:20:25.258Z,78.61
2018-05-17T00:22:51.702Z,78.65
2018-05-17T00:25:18.096Z,78.36
2018-05-17T00:27:44.587Z,79.10
2018-05-17T00:30:11.851Z,79.23
2018-05-17T00:32:38.273Z,79.24
2018-05-17T00:35:05.430Z,78.81
2018-05-17T00:37:31.864Z,78.46
2018-05-17T00:39:58.597Z,78.49
2018-05-17T00:42:25.740Z,79.06
2018-05-17T00:44:53.093Z,79.22
2018-05-17T00:47:20.219Z,79.05
2018-05-17T00:49:46.581Z,78.76
2018-05-17T00:52:13.800Z,79.16
2018-05-17T00:54:40.404Z,78.62
2018-05-17T00:57:07.075Z,78.47
2018-05-17T00:59:33.496Z,78.36
2018-05-17T01:01:59.934Z,78.96
2018-05-17T01:04:26.309Z,79.32
2018-05-17T01:06:53.480Z,79.65
2018-05-17T01:09:19.906Z,79.59
2018-05-17T01:11:46.286Z,81.07
2018-05-17T01:14:12.746Z,80.67
2018-05-17T01:16:42.065Z,81.64
2018-05-17T01:19:10.388Z,81.13
2018-05-17T01:21:36.815Z,81.11
2018-05-17T01:24:03.955Z,81.69
2018-05-17T01:26:30.408Z,81.59
2018-05-17T01:28:57.036Z,81.57
2018-05-17T01:31:23.436Z,81.11
2018-05-17T01:33:49.822Z,82.61
2018-05-17T01:36:16.246Z,81.23
2018-05-17T01:38:42.627Z,81.84
2018-05-17T01:41:09.146Z,81.47
2018-05-17T01:43:36.275Z,81.69
2018-05-17T01:46:02.792Z,82.45
2018-05-17T01:48:29.216Z,83.03
2018-05-17T01:50:55.745Z,82.15
2018-05-17T01:53:22.173Z,82.93
2018-05-17T01:55:48.652Z,82.82
2018-05-17T01:58:15.066Z,83.09
2018-05-17T02:00:41.534Z,83.70
2018-05-17T02:03:08.622Z,83.69
2018-05-17T02:05:35.025Z,84.44
2018-05-17T02:08:01.506Z,85.03
2018-05-17T02:10:27.880Z,84.77
2018-05-17T02:12:55.353Z,85.13
2018-05-17T02:15:21.757Z,85.56
2018-05-17T02:17:48.410Z,86.83
2018-05-17T02:20:15.641Z,86.45
2018-05-17T02:22:42.871Z,85.41
2018-05-17T02:25:09.197Z,85.85
2018-05-17T02:27:35.606Z,86.28
2018-05-17T02:30:02.320Z,86.31
2018-05-17T02:32:28.697Z,86.52
2018-05-17T02:34:55.098Z,86.40
2018-05-17T02:37:21.467Z,86.55
2018-05-17T02:39:48.154Z,86.77
2018-05-17T02:42:15.279Z,87.09
2018-05-17T02:44:41.697Z,86.52
2018-05-17T02:47:08.110Z,86.45
2018-05-17T02:49:34.518Z,86.82
2018-05-17T02:52:01.019Z,86.42
2018-05-17T02:54:28.215Z,87.09
2018-05-17T02:56:54.600Z,86.84
2018-05-17T02:59:21.719Z,86.61
2018-05-17T03:01:48.168Z,86.21
2018-05-17T03:04:14.725Z,86.53
2018-05-17T03:06:41.842Z,87.35
2018-05-17T03:09:08.227Z,86.66
2018-05-17T03:11:34.616Z,86.59
2018-05-17T03:14:01.003Z,86.80
2018-05-17T03:16:27.397Z,86.95
2018-05-17T03:18:54.545Z,87.34
2018-05-17T03:21:21.730Z,87.39
2018-05-17T03:23:48.155Z,87.27
2018-05-17T03:26:14.543Z,86.71
2018-05-17T03:28:40.915Z,86.18
2018-05-17T03:31:07.385Z,86.57
2018-05-17T03:33:33.746Z,86.46
2018-05-17T03:36:00.424Z,86.40
2018-05-17T03:38:26.808Z,86.68
2018-05-17T03:40:53.482Z,86.05
2018-05-17T03:43:20.636Z,86.30
2018-05-17T03:45:47.795Z,86.14
2018-05-17T03:48:14.288Z,86.13
2018-05-17T03:50:40.816Z,85.52
2018-05-17T03:53:07.220Z,84.73
2018-05-17T03:55:33.617Z,84.98
2018-05-17T03:58:00.734Z,84.98
2018-05-17T04:03:37.936Z,85.02
2018-05-17T04:06:22.939Z,85.93
2018-05-17T04:08:49.342Z,85.88
2018-05-17T04:11:16.367Z,86.40
2018-05-17T04:13:42.805Z,86.02
2018-05-17T04:16:09.285Z,86.15
2018-05-17T04:18:36.507Z,86.19
2018-05-17T04:21:02.915Z,85.98
2018-05-17T04:23:29.306Z,85.88
2018-05-17T04:25:56.458Z,85.79
2018-05-17T04:28:22.851Z,86.21
2018-05-17T04:30:49.522Z,86.31
2018-05-17T04:33:16.695Z,86.31
2018-05-17T04:35:43.194Z,86.72
2018-05-17T04:38:10.309Z,86.54
2018-05-17T04:40:36.723Z,85.89
2018-05-17T04:43:03.273Z,86.43
2018-05-17T04:45:29.625Z,86.21
2018-05-17T04:47:55.998Z,86.34
2018-05-17T04:50:22.361Z,86.12
2018-05-17T04:52:48.774Z,86.64
2018-05-17T04:55:15.499Z,86.05
2018-05-17T04:57:41.977Z,85.47
2018-05-17T05:00:08.433Z,85.63
2018-05-17T05:02:36.143Z,85.82
2018-05-17T05:05:02.608Z,85.72
2018-05-17T05:07:29.476Z,84.99
2018-05-17T05:09:56.173Z,85.43
2018-05-17T05:12:22.874Z,84.81
2018-05-17T05:14:50.232Z,84.20
2018-05-17T05:17:17.591Z,84.81
2018-05-17T05:19:43.980Z,84.73
2018-05-17T05:22:10.627Z,84.79
2018-05-17T05:24:37.005Z,85.17
2018-05-17T05:27:03.900Z,84.51
2018-05-17T05:29:31.031Z,84.57
2018-05-17T05:31:57.554Z,84.58
2018-05-17T05:34:24.153Z,84.93
2018-05-17T05:36:51.276Z,85.03
2018-05-17T05:39:19.569Z,85.50
2018-05-17T05:41:46.785Z,85.80
2018-05-17T05:44:13.177Z,85.64
2018-05-17T05:46:39.776Z,84.68
2018-05-17T05:49:06.957Z,85.29
2018-05-17T05:51:33.366Z,84.28
2018-05-17T05:53:59.812Z,82.71
2018-05-17T05:56:26.934Z,82.13
2018-05-17T05:58:53.608Z,81.85
2018-05-17T06:01:20.022Z,81.83
2018-05-17T06:03:47.164Z,81.16
2018-05-17T06:06:14.370Z,79.58
2018-05-17T06:08:40.770Z,79.29
2018-05-17T06:11:07.956Z,79.43
2018-05-17T06:13:34.313Z,80.01
2018-05-17T06:16:00.751Z,80.24
2018-05-17T06:18:27.305Z,80.14
2018-05-17T06:20:54.486Z,80.32
2018-05-17T06:23:21.043Z,80.30
2018-05-17T06:25:47.640Z,80.66
2018-05-17T06:28:14.833Z,81.14
2018-05-17T06:30:41.240Z,81.77
2018-05-17T06:33:08.051Z,82.12
2018-05-17T06:35:37.144Z,82.79
2018-05-17T06:38:04.397Z,83.18
2018-05-17T06:40:30.849Z,83.60
2018-05-17T06:42:57.403Z,84.02
2018-05-17T06:45:24.003Z,83.37
2018-05-17T06:47:51.533Z,83.69
2018-05-17T06:50:18.381Z,83.18
2018-05-17T06:52:44.949Z,83.06
2018-05-17T06:55:12.157Z,83.11
2018-05-17T06:57:38.720Z,83.35
2018-05-17T07:00:07.065Z,82.34
2018-05-17T07:02:33.759Z,82.28
2018-05-17T07:05:01.331Z,81.34
2018-05-17T07:07:27.739Z,81.48
2018-05-17T07:09:55.734Z,82.52
2018-05-17T07:12:22.357Z,82.79
2018-05-17T07:14:49.683Z,84.05
2018-05-17T07:17:18.159Z,83.47
2018-05-17T07:19:44.566Z,83.96
2018-05-17T07:22:11.754Z,84.00
2018-05-17T07:24:46.073Z,83.72
2018-05-17T07:27:12.467Z,82.87
2018-05-17T07:29:39.439Z,83.58
2018-05-17T07:32:05.801Z,84.84
2018-05-17T07:34:32.988Z,85.31
2018-05-17T07:36:59.437Z,85.37
2018-05-17T07:39:25.835Z,85.00
2018-05-17T07:41:52.198Z,85.72
2018-05-17T07:44:19.341Z,86.05
2018-05-17T07:46:45.796Z,86.20
2018-05-17T07:49:12.564Z,84.85
2018-05-17T07:51:40.042Z,86.09
2018-05-17T07:54:06.549Z,85.81
2018-05-17T07:56:32.970Z,85.90
2018-05-17T07:58:59.451Z,85.58
2018-05-17T08:01:25.879Z,86.37
2018-05-17T08:03:52.269Z,86.11
2018-05-17T08:06:18.947Z,86.14
2018-05-17T08:08:46.166Z,84.66
2018-05-17T08:11:13.417Z,84.54
2018-05-17T08:13:39.952Z,85.37
2018-05-17T08:16:06.349Z,84.59
2018-05-17T08:18:32.840Z,85.38
2018-05-17T08:21:00.006Z,84.74
2018-05-17T08:23:26.407Z,84.69
2018-05-17T08:25:53.075Z,84.79
2018-05-17T08:28:19.482Z,84.71
2018-05-17T08:30:46.625Z,84.47
2018-05-17T08:33:13.249Z,84.86
2018-05-17T08:35:39.860Z,84.04
2018-05-17T08:38:06.393Z,84.55
2018-05-17T08:40:32.804Z,84.34
2018-05-17T08:42:59.155Z,84.12
2018-05-17T08:45:25.590Z,83.60
2018-05-17T08:47:51.966Z,81.92
2018-05-17T08:50:18.651Z,82.36
2018-05-17T08:52:45.013Z,82.34
2018-05-17T08:55:11.506Z,82.06
2018-05-17T08:57:37.985Z,82.01
2018-05-17T09:00:04.580Z,80.59
2018-05-17T09:02:30.978Z,80.27
2018-05-17T09:05:00.593Z,79.89
2018-05-17T09:07:27.716Z,81.13
2018-05-17T09:09:54.539Z,80.75
2018-05-17T09:12:20.933Z,81.69
2018-05-17T09:14:48.627Z,82.01
2018-05-17T09:17:15.161Z,81.02
2018-05-17T09:19:41.867Z,80.40
2018-05-17T09:22:12.816Z,81.02
2018-05-17T09:24:40.008Z,81.25
2018-05-17T09:27:07.563Z,80.61
2018-05-17T09:29:34.090Z,79.98
2018-05-17T09:32:00.667Z,79.29
2018-05-17T09:34:27.877Z,79.33
2018-05-17T09:36:54.756Z,78.76
2018-05-17T09:39:22.798Z,77.45
2018-05-17T09:41:49.246Z,76.81
2018-05-17T09:44:15.652Z,76.65
2018-05-17T09:46:42.119Z,76.45
2018-05-17T09:49:08.843Z,75.74
2018-05-17T09:51:36.585Z,74.63
2018-05-17T09:54:03.551Z,74.21
2018-05-17T09:56:29.994Z,73.97
2018-05-17T09:58:57.727Z,74.57
2018-05-17T10:01:24.373Z,72.75
2018-05-17T10:03:51.175Z,72.95
2018-05-17T10:06:19.192Z,71.72
2018-05-17T10:08:46.198Z,70.92
2018-05-17T10:11:13.107Z,70.32
2018-05-17T10:13:43.204Z,71.59
2018-05-17T10:16:09.735Z,73.44
2018-05-17T10:18:36.169Z,73.65
2018-05-17T10:21:02.574Z,73.47
2018-05-17T10:23:29.081Z,75.47
2018-05-17T10:25:56.187Z,76.23
2018-05-17T10:28:22.618Z,76.61
2018-05-17T10:30:49.069Z,76.63
2018-05-17T10:33:15.462Z,76.07
2018-05-17T10:35:42.021Z,75.74
2018-05-17T10:38:08.410Z,74.36
2018-05-17T10:40:37.041Z,73.13
2018-05-17T10:43:04.047Z,72.87
2018-05-17T10:45:31.123Z,73.14
2018-05-17T10:47:57.717Z,72.83
2018-05-17T10:50:26.295Z,71.93
2018-05-17T10:52:53.765Z,72.11
2018-05-17T10:55:20.709Z,71.97
2018-05-17T10:57:48.178Z,72.24
2018-05-17T11:00:15.256Z,72.61
2018-05-17T11:02:42.213Z,71.11
2018-05-17T11:05:08.848Z,70.71
2018-05-17T11:07:35.283Z,71.02
2018-05-17T11:10:03.031Z,71.09
2018-05-17T11:12:29.480Z,69.57
2018-05-17T11:14:55.864Z,70.32
2018-05-17T11:17:22.355Z,71.81
2018-05-17T11:19:50.217Z,71.19
2018-05-17T11:22:17.025Z,71.10
2018-05-17T11:24:43.597Z,70.63
2018-05-17T11:27:11.557Z,68.82
2018-05-17T11:29:39.466Z,67.97
2018-05-17T11:32:07.899Z,68.60
2018-05-17T11:34:35.626Z,68.52
2018-05-17T11:37:02.530Z,67.87
2018-05-17T11:39:29.511Z,67.53
2018-05-17T11:41:56.154Z,67.73
2018-05-17T11:44:23.436Z,67.98
2018-05-17T11:46:50.066Z,66.92
2018-05-17T11:49:16.645Z,67.05
2018-05-17T11:51:44.110Z,67.03
2018-05-17T11:54:11.773Z,68.44
2018-05-17T11:56:39.749Z,68.36
2018-05-17T11:59:07.124Z,69.75
2018-05-17T12:01:33.549Z,68.79
2018-05-17T12:04:01.030Z,68.21
2018-05-17T12:06:27.540Z,68.49
2018-05-17T12:08:54.017Z,68.97
2018-05-17T12:11:20.715Z,70.09
2018-05-17T12:13:47.298Z,69.46
2018-05-17T12:16:13.916Z,66.53
2018-05-17T12:18:41.860Z,64.10
2018-05-17T12:21:08.537Z,64.13
2018-05-17T12:23:35.539Z,63.28
2018-05-17T12:26:02.888Z,62.41
2018-05-17T12:28:30.375Z,63.09
2018-05-17T12:30:56.877Z,63.72
2018-05-17T12:33:23.528Z,62.88
2018-05-17T12:35:50.112Z,62.90
2018-05-17T12:38:16.491Z,63.27
2018-05-17T12:40:43.685Z,63.62
2018-05-17T12:43:10.319Z,64.66
2018-05-17T12:45:37.361Z,64.65
2018-05-17T12:48:04.879Z,63.95
2018-05-17T12:50:31.794Z,62.76
2018-05-17T12:52:58.491Z,61.16
2018-05-17T12:55:25.210Z,62.09
2018-05-17T12:57:53.231Z,61.64
2018-05-17T13:00:20.445Z,62.28
2018-05-17T13:02:46.849Z,61.21
2018-05-17T13:05:28.236Z,60.51
2018-05-17T13:07:55.706Z,59.06
2018-05-17T13:10:22.450Z,58.72
2018-05-17T13:12:49.080Z,57.38
2018-05-17T13:15:15.454Z,57.72
2018-05-17T13:17:41.844Z,58.86
2018-05-17T13:20:08.242Z,59.90
2018-05-17T13:22:34.646Z,62.08
2018-05-17T13:25:01.015Z,62.58
2018-05-17T13:27:28.216Z,62.24
2018-05-17T13:29:55.172Z,59.47
2018-05-17T13:32:21.591Z,57.95
2018-05-17T13:34:47.962Z,55.96
2018-05-17T13:37:14.356Z,56.42
2018-05-17T13:39:40.830Z,55.22
2018-05-17T13:42:07.374Z,54.40
2018-05-17T13:44:35.557Z,50.97
2018-05-17T13:47:03.111Z,49.76
2018-05-17T13:49:29.543Z,51.84
2018-05-17T13:51:55.935Z,51.43
2018-05-17T13:54:22.303Z,51.91
2018-05-17T13:56:49.009Z,52.21
2018-05-17T13:59:15.436Z,53.10
2018-05-17T14:01:42.127Z,54.11
2018-05-17T14:04:09.462Z,53.27
2018-05-17T14:06:35.862Z,49.59
2018-05-17T14:09:02.429Z,50.66
2018-05-17T14:11:28.857Z,52.20
2018-05-17T14:13:55.239Z,55.33
2018-05-17T14:16:21.623Z,57.47
2018-05-17T14:18:48.772Z,58.29
2018-05-17T14:21:15.455Z,59.17
2018-05-17T14:23:41.916Z,58.24
2018-05-17T14:26:08.301Z,58.95
2018-05-17T14:28:35.445Z,58.24
2018-05-17T14:31:02.631Z,59.66
2018-05-17T14:33:29.189Z,59.42
2018-05-17T14:35:55.895Z,59.50
2018-05-17T14:38:22.651Z,59.42
2018-05-17T14:40:49.109Z,58.27
2018-05-17T14:43:15.483Z,54.87
2018-05-17T14:45:42.873Z,55.46
2018-05-17T14:48:09.238Z,55.33
2018-05-17T14:50:35.785Z,54.50
2018-05-17T14:53:02.938Z,53.71
2018-05-17T14:55:29.353Z,55.24
2018-05-17T14:57:56.312Z,54.11
2018-05-17T15:00:22.743Z,52.84
2018-05-17T15:02:49.157Z,50.86
2018-05-17T15:05:15.540Z,51.25
2018-05-17T15:07:42.721Z,50.90
2018-05-17T15:10:09.153Z,50.11
2018-05-17T15:12:35.518Z,51.96
2018-05-17T15:15:01.900Z,53.20
2018-05-17T15:17:28.692Z,54.52
2018-05-17T15:19:55.307Z,52.88
2018-05-17T15:22:21.784Z,50.22
2018-05-17T15:24:48.958Z,48.84
2018-05-17T15:27:15.467Z,48.51
2018-05-17T15:29:41.957Z,49.50
2018-05-17T15:32:08.449Z,42.70
2018-05-17T15:34:35.624Z,38.59
2018-05-17T15:37:02.081Z,41.55
2018-05-17T15:39:29.503Z,43.80
2018-05-17T15:41:55.898Z,45.49
2018-05-17T15:44:22.321Z,45.76
2018-05-17T15:46:48.853Z,47.01
2018-05-17T15:49:15.241Z,46.93
2018-05-17T15:51:42.392Z,48.03
2018-05-17T15:54:10.087Z,42.46
2018-05-17T15:56:36.483Z,41.91
2018-05-17T15:59:02.921Z,41.72
2018-05-17T16:01:29.875Z,41.78
2018-05-17T16:03:56.776Z,42.72
2018-05-17T16:06:23.527Z,43.92
2018-05-17T16:08:51.074Z,43.47
2018-05-17T16:11:17.524Z,42.39
2018-05-17T16:13:44.658Z,41.52
2018-05-17T16:16:11.126Z,40.28
2018-05-17T16:18:37.857Z,37.48
2018-05-17T16:21:04.368Z,33.99
2018-05-17T16:23:31.646Z,32.86
2018-05-17T16:25:58.068Z,30.05
2018-05-17T16:28:25.211Z,30.29
2018-05-17T16:30:52.381Z,30.57
2018-05-17T16:33:18.802Z,32.00
2018-05-17T16:35:46.204Z,32.52
2018-05-17T16:38:12.896Z,33.14
2018-05-17T16:40:39.403Z,33.24
2018-05-17T16:43:05.889Z,32.57
2018-05-17T16:45:32.380Z,36.48
2018-05-17T16:47:59.574Z,37.16
2018-05-17T16:50:26.032Z,39.45
2018-05-17T16:52:52.658Z,41.19
2018-05-17T16:55:19.103Z,38.42
2018-05-17T16:57:45.536Z,40.91
2018-05-17T17:00:13.106Z,42.01
2018-05-17T17:02:39.582Z,42.67
2018-05-17T17:05:06.786Z,45.36
2018-05-17T17:07:34.608Z,46.85
2018-05-17T17:10:01.215Z,47.68
2018-05-17T17:12:28.469Z,48.55
2018-05-17T17:14:54.894Z,48.12
2018-05-17T17:17:22.839Z,47.10
2018-05-17T17:19:50.139Z,45.73
2018-05-17T17:22:16.762Z,47.24
2018-05-17T17:24:44.004Z,49.31
2018-05-17T17:27:11.202Z,50.46
2018-05-17T17:29:37.659Z,51.49
2018-05-17T17:32:04.699Z,51.72
2018-05-17T17:34:31.210Z,52.66
2018-05-17T17:36:57.706Z,53.28
2018-05-17T17:39:25.118Z,54.14
2018-05-17T17:41:51.703Z,55.40
2018-05-17T17:44:18.184Z,54.79
2018-05-17T17:46:45.317Z,55.44
2018-05-17T17:49:12.198Z,54.68
2018-05-17T17:51:39.453Z,56.17
2018-05-17T17:54:06.058Z,56.11
2018-05-17T17:56:32.481Z,55.88
2018-05-17T17:58:58.921Z,56.00
2018-05-17T18:01:25.386Z,56.68
2018-05-17T18:03:53.053Z,57.42
2018-05-17T18:06:19.698Z,57.57
2018-05-17T18:08:46.082Z,56.74
2018-05-17T18:11:12.567Z,57.23
2018-05-17T18:13:39.093Z,57.80
2018-05-17T18:16:05.752Z,57.86
2018-05-17T18:18:33.024Z,58.24
2018-05-17T18:21:00.407Z,59.24
2018-05-17T18:23:26.970Z,59.25
2018-05-17T18:25:53.453Z,59.24
2018-05-17T18:28:21.120Z,59.74
2018-05-17T18:30:47.968Z,60.18
2018-05-17T18:33:14.612Z,59.79
2018-05-17T18:35:41.057Z,60.82
2018-05-17T18:38:08.360Z,60.69
2018-05-17T18:40:36.518Z,61.13
2018-05-17T18:43:03.863Z,60.54
2018-05-17T18:45:33.289Z,60.55
2018-05-17T18:48:00.955Z,61.67
2018-05-17T18:50:29.295Z,62.25
2018-05-17T18:52:56.740Z,62.66
2018-05-17T18:55:31.103Z,63.71
2018-05-17T18:57:58.099Z,64.18
2018-05-17T19:00:24.946Z,63.98
2018-05-17T19:02:52.275Z,63.73
2018-05-17T19:05:26.010Z,63.99
2018-05-17T19:07:53.515Z,65.02
2018-05-17T19:10:20.695Z,65.38
2018-05-17T19:12:47.572Z,65.24
2018-05-17T19:15:15.269Z,65.19
2018-05-17T19:17:42.003Z,66.18
2018-05-17T19:20:09.447Z,66.42
2018-05-17T19:22:37.422Z,66.68
2018-05-17T19:25:03.870Z,66.31
2018-05-17T19:27:31.415Z,66.81
2018-05-17T19:29:57.915Z,66.36
2018-05-17T19:32:24.924Z,65.78
2018-05-17T19:34:52.489Z,66.30
2018-05-17T19:37:19.811Z,67.06
2018-05-17T19:39:46.210Z,67.04
2018-05-17T19:42:12.699Z,68.25
2018-05-17T19:44:39.956Z,68.55
2018-05-17T19:47:07.238Z,69.02
2018-05-17T19:49:33.828Z,69.68
2018-05-17T19:52:01.562Z,69.87
2018-05-17T19:54:28.173Z,69.68
2018-05-17T19:56:55.238Z,69.97
2018-05-17T19:59:22.699Z,70.06
2018-05-17T20:01:49.491Z,70.33
2018-05-17T20:04:17.386Z,70.71
2018-05-17T20:06:44.002Z,71.29
2018-05-17T20:09:10.427Z,70.31
2018-05-17T20:11:37.713Z,70.55
2018-05-17T20:14:05.284Z,69.89
2018-05-17T20:16:39.288Z,70.06
2018-05-17T20:19:05.801Z,70.86
2018-05-17T20:21:32.417Z,71.35
2018-05-17T20:23:59.705Z,72.09
2018-05-17T20:26:26.258Z,72.41
2018-05-17T20:28:52.710Z,72.89
2018-05-17T20:31:19.105Z,73.42
2018-05-17T20:33:46.274Z,73.73
2018-05-17T20:36:13.100Z,73.86
2018-05-17T20:38:40.510Z,73.89
2018-05-17T20:41:08.958Z,74.26
2018-05-17T20:43:35.566Z,74.25
2018-05-17T20:46:02.203Z,73.18
2018-05-17T20:48:28.657Z,72.83
2018-05-17T20:50:55.141Z,72.49
2018-05-17T20:53:22.317Z,72.66
2018-05-17T20:55:49.747Z,73.05
2018-05-17T20:58:16.909Z,73.44
2018-05-17T21:00:45.164Z,72.71
2018-05-17T21:03:11.678Z,73.36
2018-05-17T21:05:38.155Z,72.88
2018-05-17T21:08:05.352Z,72.72
2018-05-17T21:10:31.830Z,73.33
2018-05-17T21:12:59.192Z,74.16
2018-05-17T21:15:26.500Z,75.32
2018-05-17T21:17:52.953Z,75.67
2018-05-17T21:20:19.736Z,76.40
2018-05-17T21:22:46.132Z,76.74
2018-05-17T21:25:12.612Z,76.60
2018-05-17T21:27:40.584Z,76.73
2018-05-17T21:30:07.109Z,76.56
2018-05-17T21:32:33.542Z,77.18
2018-05-17T21:34:59.912Z,77.56
2018-05-17T21:37:26.491Z,78.26
2018-05-17T21:39:53.704Z,78.51
2018-05-17T21:42:20.101Z,78.96
2018-05-17T21:44:46.612Z,79.21
2018-05-17T21:47:13.149Z,79.76
2018-05-17T21:49:40.353Z,79.53
2018-05-17T21:52:06.936Z,79.45
2018-05-17T21:54:34.137Z,79.50
2018-05-17T21:57:00.521Z,79.18
2018-05-17T21:59:27.997Z,79.47
2018-05-17T22:01:54.620Z,79.65
2018-05-17T22:04:22.146Z,80.00
2018-05-17T22:06:48.563Z,79.87
2018-05-17T22:09:14.997Z,79.66
2018-05-17T22:11:41.433Z,77.70
2018-05-17T22:14:07.987Z,77.41
2018-05-17T22:16:34.436Z,76.70
2018-05-17T22:19:01.573Z,76.27
2018-05-17T22:21:27.974Z,76.18
2018-05-17T22:23:54.372Z,76.70
2018-05-17T22:26:20.812Z,77.19
2018-05-17T22:28:47.285Z,77.42
2018-05-17T22:31:13.689Z,77.78
2018-05-17T22:33:40.173Z,77.70
2018-05-17T22:36:06.530Z,78.08
2018-05-17T22:41:06.354Z,78.85
2018-05-17T22:43:32.776Z,79.16
2018-05-17T22:46:00.090Z,79.29
2018-05-17T22:48:26.695Z,79.69
2018-05-17T22:50:53.215Z,79.57
2018-05-17T22:53:19.656Z,80.50
2018-05-17T22:55:46.190Z,81.09
2018-05-17T22:58:28.976Z,81.18
2018-05-17T23:00:56.105Z,80.96
2018-05-17T23:03:22.529Z,81.02
2018-05-17T23:05:48.962Z,81.21
2018-05-17T23:08:15.371Z,81.56
2018-05-17T23:10:41.825Z,81.88
2018-05-17T23:13:08.291Z,81.96
2018-05-17T23:15:34.778Z,81.90
2018-05-17T23:18:01.271Z,81.97
2018-05-17T23:20:28.395Z,82.04
2018-05-17T23:22:54.834Z,82.06
2018-05-17T23:25:21.274Z,82.21
2018-05-17T23:27:47.770Z,82.01
2018-05-17T23:30:14.239Z,82.25
2018-05-17T23:32:40.614Z,82.21
2018-05-17T23:35:07.045Z,82.27
2018-05-17T23:37:33.549Z,82.40
2018-05-17T23:40:19.071Z,82.78
2018-05-17T23:42:55.490Z,82.88
2018-05-17T23:45:21.925Z,83.18
2018-05-17T23:47:48.699Z,83.30
2018-05-17T23:50:15.137Z,83.52
2018-05-17T23:52:41.530Z,83.18
2018-05-17T23:55:08.908Z,83.75
2018-05-17T23:57:36.036Z,84.16
